Time;durP1;ratioP1;P1;durP2;ratioP2;P2;SDS_P1;SDS_P2;PMS_P1;PMS_P2;Temp;Humidity;BMP_temperature;BMP_pressure;BME280_temperature;BME280_humidity;BME280_pressure;Samples;Min_cycle;Max_cycle;Signal;HPM_P1;HPM_P2
2022/10/15 00:00:20;;;;;;;;;;;256.30;2252.80;;;;;;5092252;28;19908;-60
2022/10/15 00:02:46;;;;;;;;;;;256.30;2252.80;;;;;;5092775;28;19920;-61
2022/10/15 00:05:11;;;;;;;;;;;256.30;2252.80;;;;;;5093332;28;20259;-61
2022/10/15 00:07:37;;;;;;;;;;;256.20;2252.80;;;;;;5092753;28;19958;-61
2022/10/15 00:10:03;;;;;;;;;;;256.20;2252.80;;;;;;5093014;28;20311;-60
2022/10/15 00:12:28;;;;;;;;;;;256.20;2252.80;;;;;;5092978;28;19908;-60
2022/10/15 00:14:54;;;;;;;;;;;256.20;2252.80;;;;;;5092993;28;20438;-61
2022/10/15 00:17:19;;;;;;;;;;;256.20;2252.80;;;;;;5092938;28;19909;-63
2022/10/15 00:19:45;;;;;;;;;;;256.10;2252.80;;;;;;5092856;28;20350;-63
2022/10/15 00:22:10;;;;;;;;;;;256.00;2252.80;;;;;;5092826;28;20259;-61
2022/10/15 00:24:36;;;;;;;;;;;256.10;2252.80;;;;;;5092491;28;19919;-61
2022/10/15 00:27:01;;;;;;;;;;;256.00;2252.80;;;;;;5092704;28;19948;-61
2022/10/15 00:29:27;;;;;;;;;;;231.30;2252.80;;;;;;5092422;28;19979;-60
2022/10/15 00:31:53;;;;;;;;;;;231.30;2252.80;;;;;;5092722;28;20286;-61
2022/10/15 00:34:19;;;;;;;;;;;231.30;2252.80;;;;;;5092502;28;19912;-61
2022/10/15 00:36:44;;;;;;;;;;;231.30;2252.80;;;;;;5092299;28;19919;-62
2022/10/15 00:39:10;;;;;;;;;;;256.00;2252.80;;;;;;5092498;28;19908;-61
2022/10/15 00:41:37;;;;;;;;;;;231.30;2252.80;;;;;;5092092;28;19919;-61
2022/10/15 00:44:22;;;;;;;;;;;231.30;2252.80;;;;;;5092315;28;19915;-61
2022/10/15 00:46:48;;;;;;;;;;;231.30;2252.80;;;;;;5092129;28;20349;-61
2022/10/15 00:49:19;;;;;;;;;;;231.20;2252.80;;;;;;5092245;28;19907;-60
2022/10/15 00:51:51;;;;;;;;;;;231.20;2252.80;;;;;;5091962;28;19915;-61
2022/10/15 00:54:18;;;;;;;;;;;231.30;2252.80;;;;;;5091949;28;20381;-60
2022/10/15 00:56:44;;;;;;;;;;;231.20;2252.80;;;;;;5091860;28;19911;-61
2022/10/15 00:59:11;;;;;;;;;;;231.20;2252.80;;;;;;5092274;28;20380;-61
2022/10/15 01:01:37;;;;;;;;;;;231.20;2252.80;;;;;;5092029;28;19916;-60
2022/10/15 01:04:03;;;;;;;;;;;231.10;2252.80;;;;;;5091994;28;20913;-60
2022/10/15 01:06:29;;;;;;;;;;;231.10;2252.80;;;;;;5092079;28;19987;-60
2022/10/15 01:08:55;;;;;;;;;;;231.10;2252.80;;;;;;5091507;28;19993;-61
2022/10/15 01:11:20;;;;;;;;;;;231.10;2252.80;;;;;;5091602;28;20265;-60
2022/10/15 01:13:58;;;;;;;;;;;231.10;2252.80;;;;;;5091624;28;19969;-60
2022/10/15 01:16:28;;;;;;;;;;;231.10;2252.80;;;;;;5091584;28;19916;-60
2022/10/15 01:19:12;;;;;;;;;;;230.90;2252.80;;;;;;5091563;28;20424;-61
2022/10/15 01:21:41;;;;;;;;;;;231.00;2252.80;;;;;;5091415;28;19917;-60
2022/10/15 01:24:07;;;;;;;;;;;231.00;2252.80;;;;;;5091328;28;19908;-60
2022/10/15 01:26:51;;;;;;;;;;;231.00;2252.80;;;;;;5091604;28;19908;-60
2022/10/15 01:29:29;;;;;;;;;;;230.90;2252.80;;;;;;5091330;28;19912;-60
2022/10/15 01:32:11;;;;;;;;;;;230.90;2252.80;;;;;;5091383;28;19908;-60
2022/10/15 01:34:37;;;;;;;;;;;230.90;2252.80;;;;;;5091142;28;19957;-61
2022/10/15 01:37:02;;;;;;;;;;;230.90;2252.80;;;;;;5091418;28;19916;-61
2022/10/15 01:39:31;;;;;;;;;;;230.80;2252.80;;;;;;5091051;28;19908;-61
2022/10/15 01:42:02;;;;;;;;;;;230.90;2252.80;;;;;;5091082;28;19926;-61
2022/10/15 01:44:33;;;;;;;;;;;230.90;2252.80;;;;;;5091082;28;19915;-60
2022/10/15 01:47:11;;;;;;;;;;;231.00;2252.80;;;;;;5090926;28;20002;-60
2022/10/15 01:49:40;;;;;;;;;;;230.90;2252.80;;;;;;5090911;28;20404;-61
2022/10/15 01:52:08;;;;;;;;;;;230.90;2252.80;;;;;;5091073;28;19912;-61
2022/10/15 01:54:34;;;;;;;;;;;230.80;2252.80;;;;;;5090669;28;19912;-61
2022/10/15 01:57:01;;;;;;;;;;;230.80;2252.80;;;;;;5091029;28;19916;-61
2022/10/15 01:59:29;;;;;;;;;;;230.80;2252.80;;;;;;5090752;28;20321;-61
2022/10/15 02:01:55;;;;;;;;;;;230.80;2252.80;;;;;;5090780;28;19912;-60
2022/10/15 02:04:22;;;;;;;;;;;230.70;2252.80;;;;;;5090880;28;19938;-60
2022/10/15 02:06:51;;;;;;;;;;;230.70;2252.80;;;;;;5090779;28;19912;-60
2022/10/15 02:09:33;;;;;;;;;;;230.70;2252.80;;;;;;5090478;28;19924;-61
2022/10/15 02:12:07;;;;;;;;;;;230.70;2252.80;;;;;;5090810;28;19994;-60
2022/10/15 02:14:45;;;;;;;;;;;230.70;2252.80;;;;;;5091034;28;19908;-60
2022/10/15 02:17:11;;;;;;;;;;;230.50;2252.80;;;;;;5090966;28;19908;-61
2022/10/15 02:19:50;;;;;;;;;;;230.50;2252.80;;;;;;5090662;28;20377;-60
2022/10/15 02:22:16;;;;;;;;;;;230.50;2252.80;;;;;;5090154;28;19916;-60
2022/10/15 02:24:45;;;;;;;;;;;230.50;2252.80;;;;;;5090388;28;19923;-60
2022/10/15 02:27:11;;;;;;;;;;;230.50;2252.80;;;;;;5090957;28;20278;-61
2022/10/15 02:29:37;;;;;;;;;;;230.60;2252.80;;;;;;5090357;28;19912;-60
2022/10/15 02:32:04;;;;;;;;;;;230.60;2252.80;;;;;;5090861;28;20013;-60
2022/10/15 02:34:31;;;;;;;;;;;230.60;2252.80;;;;;;5090486;28;19912;-61
2022/10/15 02:36:57;;;;;;;;;;;230.60;2252.80;;;;;;5090415;28;19916;-60
2022/10/15 02:39:23;;;;;;;;;;;230.60;2252.80;;;;;;5090336;28;19909;-60
2022/10/15 02:41:49;;;;;;;;;;;230.60;2252.80;;;;;;5090780;28;19969;-60
2022/10/15 02:44:15;;;;;;;;;;;230.60;2252.80;;;;;;5090650;28;20261;-60
2022/10/15 02:46:41;;;;;;;;;;;230.50;2252.80;;;;;;5090589;28;19908;-59
2022/10/15 02:49:06;;;;;;;;;;;230.60;2252.80;;;;;;5090484;28;19928;-60
2022/10/15 02:51:32;;;;;;;;;;;230.60;2252.80;;;;;;5090441;28;19931;-60
2022/10/15 02:53:59;;;;;;;;;;;230.50;2252.80;;;;;;5090160;28;19953;-60
2022/10/15 02:56:25;;;;;;;;;;;230.50;2252.80;;;;;;5090535;28;20318;-61
2022/10/15 02:58:50;;;;;;;;;;;230.50;2252.80;;;;;;5090505;28;20418;-60
2022/10/15 03:01:16;;;;;;;;;;;230.40;2252.80;;;;;;5090199;28;19970;-59
2022/10/15 03:03:42;;;;;;;;;;;205.70;2252.80;;;;;;5090500;28;20029;-59
2022/10/15 03:06:07;;;;;;;;;;;230.40;2252.80;;;;;;5090094;28;20273;-60
2022/10/15 03:08:33;;;;;;;;;;;205.60;2252.80;;;;;;5090119;28;19927;-60
2022/10/15 03:11:00;;;;;;;;;;;205.60;2252.80;;;;;;5090244;28;19908;-60
2022/10/15 03:13:26;;;;;;;;;;;205.60;2252.80;;;;;;5090135;28;20003;-60
2022/10/15 03:15:51;;;;;;;;;;;205.60;2252.80;;;;;;5090369;28;19959;-60
2022/10/15 03:18:17;;;;;;;;;;;205.70;2252.80;;;;;;5090036;28;20346;-61
2022/10/15 03:20:42;;;;;;;;;;;205.50;2252.80;;;;;;5090427;28;19983;-60
2022/10/15 03:23:08;;;;;;;;;;;205.60;2252.80;;;;;;5089899;28;20312;-61
2022/10/15 03:25:33;;;;;;;;;;;205.60;2252.80;;;;;;5090224;28;19912;-61
2022/10/15 03:27:59;;;;;;;;;;;205.60;2252.80;;;;;;5090364;28;19954;-61
2022/10/15 03:30:24;;;;;;;;;;;205.70;2252.80;;;;;;5089912;28;20481;-61
2022/10/15 03:32:50;;;;;;;;;;;205.70;2252.80;;;;;;5090110;28;20015;-61
2022/10/15 03:35:16;;;;;;;;;;;205.70;2252.80;;;;;;5092118;28;19912;-61
2022/10/15 03:37:41;;;;;;;;;;;205.70;2252.80;;;;;;5093841;28;19908;-60
2022/10/15 03:40:07;;;;;;;;;;;205.60;2252.80;;;;;;5093363;28;19947;-61
2022/10/15 03:42:32;;;;;;;;;;;205.60;2252.80;;;;;;5093562;28;19924;-60
2022/10/15 03:44:58;;;;;;;;;;;205.60;2252.80;;;;;;5093411;28;19915;-61
2022/10/15 03:47:23;;;;;;;;;;;205.60;2252.80;;;;;;5093195;28;19915;-61
2022/10/15 03:49:49;;;;;;;;;;;205.60;2252.80;;;;;;5093427;28;19915;-61
2022/10/15 03:52:15;;;;;;;;;;;205.40;2252.80;;;;;;5093086;28;19950;-61
2022/10/15 03:54:40;;;;;;;;;;;205.50;2252.80;;;;;;5093286;28;19954;-60
2022/10/15 03:57:06;;;;;;;;;;;205.50;2252.80;;;;;;5093109;28;19908;-62
2022/10/15 03:59:31;;;;;;;;;;;205.50;2252.80;;;;;;5093453;28;19908;-61
2022/10/15 04:01:57;;;;;;;;;;;205.50;2252.80;;;;;;5092866;28;19924;-60
2022/10/15 04:04:22;;;;;;;;;;;205.50;2252.80;;;;;;5093074;28;19955;-60
2022/10/15 04:06:48;;;;;;;;;;;205.50;2252.80;;;;;;5092971;28;19912;-61
2022/10/15 04:09:14;;;;;;;;;;;205.50;2252.80;;;;;;5092959;28;20052;-61
2022/10/15 04:11:39;;;;;;;;;;;205.40;2252.80;;;;;;5093037;28;20315;-61
2022/10/15 04:14:05;;;;;;;;;;;205.40;2252.80;;;;;;5092640;28;19953;-62
2022/10/15 04:16:31;;;;;;;;;;;205.40;2252.80;;;;;;5093049;28;20109;-62
2022/10/15 04:18:57;;;;;;;;;;;205.40;2252.80;;;;;;5092594;28;20362;-60
2022/10/15 04:21:23;;;;;;;;;;;205.40;2252.80;;;;;;5092785;28;20365;-60
2022/10/15 04:23:49;;;;;;;;;;;205.30;2252.80;;;;;;5092780;28;20002;-60
2022/10/15 04:26:15;;;;;;;;;;;205.30;2252.80;;;;;;5092463;28;19915;-61
2022/10/15 04:28:40;;;;;;;;;;;205.30;2252.80;;;;;;5092688;28;19908;-60
2022/10/15 04:31:06;;;;;;;;;;;205.40;2252.80;;;;;;5092578;28;19912;-61
2022/10/15 04:33:31;;;;;;;;;;;205.40;2252.80;;;;;;5092529;28;20025;-61
2022/10/15 04:35:58;;;;;;;;;;;205.30;2252.80;;;;;;5092520;28;20011;-61
2022/10/15 04:38:24;;;;;;;;;;;205.30;2252.80;;;;;;5092460;28;19931;-61
2022/10/15 04:40:56;;;;;;;;;;;205.30;2252.80;;;;;;5092488;28;20349;-61
2022/10/15 04:43:22;;;;;;;;;;;205.30;2252.80;;;;;;5092449;28;19916;-60
2022/10/15 04:45:47;;;;;;;;;;;205.30;2252.80;;;;;;5091880;28;19916;-60
2022/10/15 04:48:13;;;;;;;;;;;205.30;2252.80;;;;;;5092624;28;19908;-60
2022/10/15 04:50:38;;;;;;;;;;;205.40;2252.80;;;;;;5092486;28;19958;-60
2022/10/15 04:53:04;;;;;;;;;;;205.40;2252.80;;;;;;5092102;28;19908;-61
2022/10/15 04:55:30;;;;;;;;;;;205.30;2252.80;;;;;;5092228;28;19998;-60
2022/10/15 04:57:55;;;;;;;;;;;205.30;2252.80;;;;;;5091879;28;19908;-59
2022/10/15 05:00:21;;;;;;;;;;;205.30;2252.80;;;;;;5092406;28;20376;-60
2022/10/15 05:02:46;;;;;;;;;;;205.20;2252.80;;;;;;5091934;28;20327;-61
2022/10/15 05:05:12;;;;;;;;;;;205.30;2252.80;;;;;;5092213;28;20328;-60
2022/10/15 05:07:37;;;;;;;;;;;205.30;2252.80;;;;;;5091620;28;20312;-60
2022/10/15 05:10:03;;;;;;;;;;;205.30;2252.80;;;;;;5091772;28;19962;-60
2022/10/15 05:12:29;;;;;;;;;;;205.30;2252.80;;;;;;5091803;28;19911;-60
2022/10/15 05:14:55;;;;;;;;;;;205.40;2252.80;;;;;;5091550;28;19914;-61
2022/10/15 05:17:20;;;;;;;;;;;205.60;2252.80;;;;;;5091661;28;19908;-59
2022/10/15 05:19:46;;;;;;;;;;;205.60;2252.80;;;;;;5091681;28;19932;-62
2022/10/15 05:22:11;;;;;;;;;;;205.60;2252.80;;;;;;5091707;28;19916;-60
2022/10/15 05:24:37;;;;;;;;;;;205.60;2252.80;;;;;;5091396;28;19923;-60
2022/10/15 05:27:02;;;;;;;;;;;205.70;2252.80;;;;;;5091713;28;19930;-60
2022/10/15 05:29:28;;;;;;;;;;;205.60;2252.80;;;;;;5091244;28;19915;-61
2022/10/15 05:31:53;;;;;;;;;;;205.60;2252.80;;;;;;5091467;28;20261;-61
2022/10/15 05:34:19;;;;;;;;;;;205.70;2252.80;;;;;;5091426;28;20001;-61
2022/10/15 05:36:45;;;;;;;;;;;205.70;2252.80;;;;;;5091261;28;19912;-61
2022/10/15 05:39:11;;;;;;;;;;;230.40;2252.80;;;;;;5091621;28;19908;-61
2022/10/15 05:41:36;;;;;;;;;;;230.40;2252.80;;;;;;5091013;28;19923;-61
2022/10/15 05:44:02;;;;;;;;;;;230.50;2252.80;;;;;;5091347;28;19909;-61
2022/10/15 05:46:27;;;;;;;;;;;230.50;2252.80;;;;;;5091080;28;19931;-61
2022/10/15 05:48:56;;;;;;;;;;;230.70;2252.80;;;;;;5091446;28;19908;-61
2022/10/15 05:51:23;;;;;;;;;;;230.60;2252.80;;;;;;5091132;28;19943;-60
2022/10/15 05:53:51;;;;;;;;;;;230.70;2252.80;;;;;;5091118;28;19934;-61
2022/10/15 05:56:17;;;;;;;;;;;230.70;2252.80;;;;;;5090961;28;19951;-61
2022/10/15 05:58:42;;;;;;;;;;;230.70;2252.80;;;;;;5090311;28;19908;-60
2022/10/15 06:01:09;;;;;;;;;;;230.80;2252.80;;;;;;5090723;28;19912;-60
2022/10/15 06:03:35;;;;;;;;;;;230.80;2252.80;;;;;;5090760;28;19920;-60
2022/10/15 06:06:01;;;;;;;;;;;230.90;2252.80;;;;;;5091145;28;19923;-61
2022/10/15 06:08:27;;;;;;;;;;;231.00;2252.80;;;;;;5090715;28;19923;-61
2022/10/15 06:10:53;;;;;;;;;;;231.00;2252.80;;;;;;5090672;28;20006;-61
2022/10/15 06:13:18;;;;;;;;;;;231.20;2252.80;;;;;;5090595;28;19957;-61
2022/10/15 06:15:44;;;;;;;;;;;256.20;2252.80;;;;;;5090591;28;19908;-61
2022/10/15 06:18:11;;;;;;;;;;;256.20;2252.80;;;;;;5090882;28;20367;-61
2022/10/15 06:20:37;;;;;;;;;;;256.40;2252.80;;;;;;5090478;28;20000;-61
2022/10/15 06:23:04;;;;;;;;;;;256.90;2252.80;;;;;;5090516;28;19962;-60
2022/10/15 06:25:30;;;;;;;;;;;256.90;2252.80;;;;;;5090642;28;19916;-62
2022/10/15 06:27:59;;;;;;;;;;;282.10;2278.40;;;;;;5090451;28;20007;-64
2022/10/15 06:30:25;;;;;;;;;;;282.30;2278.40;;;;;;5090457;28;20268;-64
2022/10/15 06:32:51;;;;;;;;;;;282.20;2278.40;;;;;;5090564;28;19908;-63
2022/10/15 06:35:17;;;;;;;;;;;282.10;2278.40;;;;;;5090423;28;20419;-61
2022/10/15 06:37:43;;;;;;;;;;;282.10;2278.40;;;;;;5090727;28;20391;-60
2022/10/15 06:40:09;;;;;;;;;;;282.00;2278.40;;;;;;5090505;28;19918;-63
2022/10/15 06:42:35;;;;;;;;;;;282.00;2278.40;;;;;;5090141;28;20285;-59
2022/10/15 06:45:00;;;;;;;;;;;281.90;2278.40;;;;;;5090502;28;19999;-61
2022/10/15 06:47:26;;;;;;;;;;;281.90;2278.40;;;;;;5090257;28;20369;-58
2022/10/15 06:49:52;;;;;;;;;;;282.00;2278.40;;;;;;5090584;28;20354;-59
2022/10/15 06:52:18;;;;;;;;;;;282.00;2278.40;;;;;;5090393;28;19916;-60
2022/10/15 06:54:43;;;;;;;;;;;282.10;2278.40;;;;;;5090707;28;19908;-59
2022/10/15 06:57:09;;;;;;;;;;;282.20;2278.40;;;;;;5090555;28;19908;-59
2022/10/15 06:59:34;;;;;;;;;;;282.30;2278.40;;;;;;5088529;28;20010;-58
2022/10/15 07:02:00;;;;;;;;;;;282.30;2278.40;;;;;;5090122;28;19920;-59
2022/10/15 07:04:25;;;;;;;;;;;307.20;2304.00;;;;;;5090062;28;19912;-59
2022/10/15 07:06:51;;;;;;;;;;;332.90;2329.60;;;;;;5090208;28;19912;-60
2022/10/15 07:09:18;;;;;;;;;;;384.90;2329.60;;;;;;5090760;28;20345;-59
2022/10/15 07:11:43;;;;;;;;;;;460.90;2380.80;;;;;;5094404;28;20285;-60
2022/10/15 07:14:09;;;;;;;;;;;486.50;2201.60;;;;;;5094252;28;19909;-59
2022/10/15 07:16:36;;;;;;;;;;;512.90;1945.60;;;;;;5093794;28;19908;-60
2022/10/15 07:19:02;;;;;;;;;;;512.90;1945.60;;;;;;5094164;28;19922;-60
2022/10/15 07:21:27;;;;;;;;;;;563.90;1868.80;;;;;;5093875;28;19920;-60
2022/10/15 07:23:53;;;;;;;;;;;563.60;1817.60;;;;;;5094032;28;20412;-60
2022/10/15 07:26:18;;;;;;;;;;;614.80;1715.20;;;;;;5093891;28;19908;-61
2022/10/15 07:28:44;;;;;;;;;;;615.30;1612.80;;;;;;5093806;28;19908;-64
2022/10/15 07:31:10;;;;;;;;;;;614.40;1638.40;;;;;;5093866;28;19908;-61
2022/10/15 07:33:35;;;;;;;;;;;589.30;1689.60;;;;;;5093475;28;19912;-61
2022/10/15 07:36:05;;;;;;;;;;;589.70;1638.40;;;;;;5093796;28;20247;-58
2022/10/15 07:38:31;;;;;;;;;;;614.50;1638.40;;;;;;5094044;28;19916;-61
2022/10/15 07:40:58;;;;;;;;;;;614.80;1612.80;;;;;;5093319;28;20422;-61
2022/10/15 07:43:23;;;;;;;;;;;665.60;1561.60;;;;;;5093414;28;19965;-61
2022/10/15 07:45:49;;;;;;;;;;;640.50;1561.60;;;;;;5092238;28;19992;-58
2022/10/15 07:48:15;;;;;;;;;;;665.60;1561.60;;;;;;5093399;28;19908;-59
2022/10/15 07:50:40;;;;;;;;;;;666.30;1484.80;;;;;;5093497;28;19914;-60
2022/10/15 07:53:06;;;;;;;;;;;691.60;1484.80;;;;;;5093289;28;20007;-59
2022/10/15 07:55:31;;;;;;;;;;;691.20;1459.20;;;;;;5093332;28;19908;-60
2022/10/15 07:57:57;;;;;;;;;;;691.80;1433.60;;;;;;5092952;28;20002;-60
2022/10/15 08:00:23;;;;;;;;;;;666.50;1459.20;;;;;;5093202;28;19915;-60
2022/10/15 08:02:49;;;;;;;;;;;665.80;1510.40;;;;;;5092614;28;19916;-61
2022/10/15 08:05:14;;;;;;;;;;;640.50;1536.00;;;;;;5093024;28;19916;-60
2022/10/15 08:07:40;;;;;;;;;;;665.90;1536.00;;;;;;5092937;28;20372;-60
2022/10/15 08:10:06;;;;;;;;;;;666.20;1484.80;;;;;;5092963;28;19912;-61
2022/10/15 08:12:32;;;;;;;;;;;640.90;1510.40;;;;;;5093120;28;19915;-60
2022/10/15 08:14:58;;;;;;;;;;;717.20;1433.60;;;;;;5092593;28;19908;-62
2022/10/15 08:17:23;;;;;;;;;;;666.50;1459.20;;;;;;5092851;28;19952;-62
2022/10/15 08:19:49;;;;;;;;;;;666.20;1510.40;;;;;;5092904;28;19916;-62
2022/10/15 08:22:14;;;;;;;;;;;666.00;1536.00;;;;;;5091627;28;19923;-62
2022/10/15 08:24:40;;;;;;;;;;;691.70;1459.20;;;;;;5092921;28;19911;-62
2022/10/15 08:27:05;;;;;;;;;;;717.50;1408.00;;;;;;5092567;28;19908;-62
2022/10/15 08:29:31;;;;;;;;;;;717.10;1433.60;;;;;;5092826;28;20022;-62
2022/10/15 08:31:57;;;;;;;;;;;743.30;1382.40;;;;;;5092556;28;19912;-62
2022/10/15 08:34:22;;;;;;;;;;;717.20;1433.60;;;;;;5092461;28;19908;-63
2022/10/15 08:36:48;;;;;;;;;;;716.80;1459.20;;;;;;5092335;28;19916;-62
2022/10/15 08:39:14;;;;;;;;;;;717.70;1433.60;;;;;;5092692;28;19908;-63
2022/10/15 08:41:52;;;;;;;;;;;717.40;1433.60;;;;;;5092181;28;20399;-62
2022/10/15 08:44:37;;;;;;;;;;;742.40;1433.60;;;;;;5092229;28;20003;-62
2022/10/15 08:47:18;;;;;;;;;;;691.30;1484.80;;;;;;5091993;28;19908;-62
2022/10/15 08:49:47;;;;;;;;;;;717.00;1459.20;;;;;;5092189;28;19908;-63
2022/10/15 08:52:16;;;;;;;;;;;742.80;1408.00;;;;;;5092441;28;19908;-62
2022/10/15 08:54:41;;;;;;;;;;;743.10;1408.00;;;;;;5092277;28;19908;-62
2022/10/15 08:57:15;;;;;;;;;;;742.40;1459.20;;;;;;5092099;28;19919;-62
2022/10/15 09:00:14;;;;;;;;;;;743.20;1408.00;;;;;;5092490;28;19919;-62
2022/10/15 09:02:59;;;;;;;;;;;742.40;1433.60;;;;;;5049692;28;19917;-62
2022/10/15 09:05:25;;;;;;;;;;;742.50;1433.60;;;;;;5049093;28;20067;-62
2022/10/15 09:07:51;;;;;;;;;;;666.00;1561.60;;;;;;5049383;28;19944;-61
2022/10/15 09:10:16;;;;;;;;;;;665.60;1587.20;;;;;;5049397;28;19909;-62
2022/10/15 09:13:00;;;;;;;;;;;640.40;1587.20;;;;;;5049584;28;19908;-61
2022/10/15 09:15:29;;;;;;;;;;;614.70;1664.00;;;;;;5049689;28;20248;-62
2022/10/15 09:17:55;;;;;;;;;;;589.70;1715.20;;;;;;5049201;28;19959;-62
2022/10/15 09:20:41;;;;;;;;;;;589.40;1715.20;;;;;;5049377;28;19956;-61
2022/10/15 09:23:12;;;;;;;;;;;588.80;1740.80;;;;;;5048603;28;19921;-61
2022/10/15 09:25:41;;;;;;;;;;;563.80;1792.00;;;;;;5049039;28;19916;-61
2022/10/15 09:28:09;;;;;;;;;;;564.00;1792.00;;;;;;5049011;28;19920;-60
2022/10/15 09:30:47;;;;;;;;;;;563.80;1766.40;;;;;;5048979;28;19920;-60
2022/10/15 09:33:21;;;;;;;;;;;563.80;1792.00;;;;;;5048957;28;20394;-60
2022/10/15 09:35:52;;;;;;;;;;;563.50;1792.00;;;;;;5048899;28;19947;-60
2022/10/15 09:38:23;;;;;;;;;;;563.30;1817.60;;;;;;5071214;28;20335;-59
2022/10/15 09:40:49;;;;;;;;;;;563.40;1792.00;;;;;;5090974;28;19934;-59
2022/10/15 09:43:22;;;;;;;;;;;538.50;1792.00;;;;;;5091025;28;19916;-60
2022/10/15 09:45:48;;;;;;;;;;;538.20;1792.00;;;;;;5090943;28;20006;-60
2022/10/15 09:48:16;;;;;;;;;;;538.00;1792.00;;;;;;5091318;28;19996;-58
2022/10/15 09:50:44;;;;;;;;;;;538.30;1766.40;;;;;;5091431;28;19931;-60
2022/10/15 09:53:13;;;;;;;;;;;538.10;1792.00;;;;;;5091042;28;19912;-59
2022/10/15 09:55:42;;;;;;;;;;;537.90;1792.00;;;;;;5090270;28;20366;-59
2022/10/15 09:58:12;;;;;;;;;;;537.90;1817.60;;;;;;5090770;28;19912;-59
2022/10/15 10:00:54;;;;;;;;;;;538.00;1817.60;;;;;;5090851;28;20427;-60
2022/10/15 10:03:21;;;;;;;;;;;537.90;1817.60;;;;;;5090982;28;19921;-60
2022/10/15 10:05:47;;;;;;;;;;;538.10;1817.60;;;;;;5090620;28;19999;-60
2022/10/15 10:08:23;;;;;;;;;;;537.90;1817.60;;;;;;5090651;28;19920;-60
2022/10/15 10:11:02;;;;;;;;;;;537.60;1817.60;;;;;;5090523;28;19969;-60
2022/10/15 10:13:41;;;;;;;;;;;512.80;1792.00;;;;;;5090825;28;19935;-60
2022/10/15 10:16:10;;;;;;;;;;;512.90;1766.40;;;;;;5090548;28;20065;-60
2022/10/15 10:18:38;;;;;;;;;;;537.80;1817.60;;;;;;5090748;28;19961;-60
2022/10/15 10:21:33;;;;;;;;;;;537.80;1817.60;;;;;;5090428;28;20318;-60
2022/10/15 10:24:17;;;;;;;;;;;537.80;1843.20;;;;;;5068352;28;20317;-60
2022/10/15 10:26:43;;;;;;;;;;;512.90;1817.60;;;;;;5068280;28;19912;-60
2022/10/15 10:29:15;;;;;;;;;;;512.90;1792.00;;;;;;5068095;28;19909;-60
2022/10/15 10:31:42;;;;;;;;;;;512.80;1817.60;;;;;;5068473;28;19912;-60
2022/10/15 10:34:13;;;;;;;;;;;512.70;1817.60;;;;;;5067965;28;20438;-60
2022/10/15 10:36:39;;;;;;;;;;;512.80;1817.60;;;;;;5068014;28;20376;-59
2022/10/15 10:39:14;;;;;;;;;;;512.90;1817.60;;;;;;5067723;28;20323;-60
2022/10/15 10:41:58;;;;;;;;;;;537.70;1843.20;;;;;;5068051;28;20020;-60
2022/10/15 10:44:30;;;;;;;;;;;537.70;1843.20;;;;;;5069264;28;19995;-60
2022/10/15 10:47:05;;;;;;;;;;;512.90;1792.00;;;;;;5072072;28;20423;-60
2022/10/15 10:49:36;;;;;;;;;;;512.80;1792.00;;;;;;5072268;28;19915;-60
2022/10/15 10:52:02;;;;;;;;;;;512.90;1817.60;;;;;;5072137;28;19970;-60
2022/10/15 10:54:28;;;;;;;;;;;512.90;1817.60;;;;;;5071826;28;19996;-60
2022/10/15 10:56:55;;;;;;;;;;;512.70;1817.60;;;;;;5072216;28;20379;-60
2022/10/15 10:59:30;;;;;;;;;;;537.60;1868.80;;;;;;5073767;28;19999;-60
2022/10/15 11:01:56;;;;;;;;;;;537.70;1843.20;;;;;;5094179;28;20015;-60
2022/10/15 11:04:23;;;;;;;;;;;512.90;1792.00;;;;;;5094091;28;20365;-60
2022/10/15 11:06:51;;;;;;;;;;;512.90;1817.60;;;;;;5094031;28;20275;-60
2022/10/15 11:09:20;;;;;;;;;;;512.90;1817.60;;;;;;5093931;28;20127;-60
2022/10/15 11:12:24;;;;;;;;;;;512.90;1792.00;;;;;;5093707;28;19909;-60
2022/10/15 11:14:50;;;;;;;;;;;512.90;1792.00;;;;;;5071587;28;19944;-59
2022/10/15 11:17:34;;;;;;;;;;;512.90;1792.00;;;;;;5071492;28;19913;-60
2022/10/15 11:20:10;;;;;;;;;;;512.90;1792.00;;;;;;5071659;28;19908;-59
2022/10/15 11:22:45;;;;;;;;;;;512.90;1792.00;;;;;;5071238;28;19923;-60
2022/10/15 11:25:32;;;;;;;;;;;512.90;1792.00;;;;;;5071558;28;19909;-60
2022/10/15 11:27:58;;;;;;;;;;;512.90;1766.40;;;;;;5071247;28;19943;-60
2022/10/15 11:30:37;;;;;;;;;;;537.60;1817.60;;;;;;5071400;28;20363;-59
2022/10/15 11:33:17;;;;;;;;;;;537.80;1792.00;;;;;;5071262;28;20426;-60
2022/10/15 11:35:42;;;;;;;;;;;537.80;1817.60;;;;;;5071451;28;19959;-59
2022/10/15 11:38:08;;;;;;;;;;;537.90;1817.60;;;;;;5071184;28;19947;-60
2022/10/15 11:40:46;;;;;;;;;;;537.90;1792.00;;;;;;5071196;28;20396;-59
2022/10/15 11:43:18;;;;;;;;;;;537.80;1766.40;;;;;;5071238;28;20385;-60
2022/10/15 11:45:50;;;;;;;;;;;537.70;1766.40;;;;;;5083915;28;20360;-60
2022/10/15 11:48:16;;;;;;;;;;;537.80;1792.00;;;;;;5093228;28;20360;-60
2022/10/15 11:50:41;;;;;;;;;;;538.00;1792.00;;;;;;5093566;28;19908;-60
2022/10/15 11:53:10;;;;;;;;;;;538.00;1766.40;;;;;;5093092;28;19912;-60
2022/10/15 11:55:51;;;;;;;;;;;538.00;1792.00;;;;;;5091764;28;19908;-60
2022/10/15 11:58:25;;;;;;;;;;;537.90;1792.00;;;;;;5093323;28;20318;-60
2022/10/15 12:00:54;;;;;;;;;;;538.00;1766.40;;;;;;5093147;28;19912;-59
2022/10/15 12:03:23;;;;;;;;;;;538.10;1766.40;;;;;;5093063;28;19921;-60
2022/10/15 12:05:52;;;;;;;;;;;537.90;1740.80;;;;;;5093262;28;19912;-60
2022/10/15 12:08:18;;;;;;;;;;;538.00;1740.80;;;;;;5092872;28;19924;-59
2022/10/15 12:11:02;;;;;;;;;;;538.00;1766.40;;;;;;5092949;28;19912;-60
2022/10/15 12:13:30;;;;;;;;;;;538.00;1766.40;;;;;;5092831;28;19957;-60
2022/10/15 12:15:55;;;;;;;;;;;537.90;1766.40;;;;;;5092766;28;19931;-60
2022/10/15 12:18:39;;;;;;;;;;;538.00;1766.40;;;;;;5092927;28;20350;-60
2022/10/15 12:21:24;;;;;;;;;;;538.00;1766.40;;;;;;5092522;28;19915;-60
2022/10/15 12:23:49;;;;;;;;;;;538.10;1766.40;;;;;;5092950;28;20304;-60
2022/10/15 12:26:24;;;;;;;;;;;538.20;1766.40;;;;;;5092531;28;19908;-60
2022/10/15 12:28:51;;;;;;;;;;;538.20;1766.40;;;;;;5092723;28;19915;-60
2022/10/15 12:31:19;;;;;;;;;;;538.10;1766.40;;;;;;5092417;28;19947;-60
2022/10/15 12:33:47;;;;;;;;;;;538.00;1766.40;;;;;;5092204;28;19919;-60
2022/10/15 12:36:27;;;;;;;;;;;538.30;1766.40;;;;;;5092779;28;20454;-60
2022/10/15 12:39:18;;;;;;;;;;;538.20;1740.80;;;;;;5092647;28;19908;-60
2022/10/15 12:41:46;;;;;;;;;;;538.00;1740.80;;;;;;5092194;28;19966;-60
2022/10/15 12:44:21;;;;;;;;;;;538.10;1766.40;;;;;;5092407;28;19915;-60
2022/10/15 12:46:47;;;;;;;;;;;538.10;1740.80;;;;;;5092320;28;19915;-61
2022/10/15 12:49:33;;;;;;;;;;;538.00;1740.80;;;;;;5092382;28;19908;-59
2022/10/15 12:52:00;;;;;;;;;;;537.90;1766.40;;;;;;5092318;28;20010;-59
2022/10/15 12:54:32;;;;;;;;;;;538.10;1766.40;;;;;;5091630;28;19908;-59
2022/10/15 12:56:58;;;;;;;;;;;538.10;1740.80;;;;;;5091973;28;19940;-60
2022/10/15 12:59:50;;;;;;;;;;;537.80;1740.80;;;;;;5091938;28;19944;-60
2022/10/15 13:02:27;;;;;;;;;;;537.80;1766.40;;;;;;5091726;28;19958;-60
2022/10/15 13:04:53;;;;;;;;;;;537.90;1740.80;;;;;;5091807;28;19912;-60
2022/10/15 13:07:19;;;;;;;;;;;537.90;1766.40;;;;;;5091506;28;19920;-59
2022/10/15 13:09:44;;;;;;;;;;;537.80;1766.40;;;;;;5091613;28;20360;-60
2022/10/15 13:12:16;;;;;;;;;;;537.80;1766.40;;;;;;5091961;28;19908;-59
2022/10/15 13:14:51;;;;;;;;;;;537.70;1740.80;;;;;;5091963;28;19915;-60
2022/10/15 13:17:20;;;;;;;;;;;537.80;1766.40;;;;;;5091607;28;19908;-61
2022/10/15 13:19:48;;;;;;;;;;;537.80;1766.40;;;;;;5091464;28;19909;-61
2022/10/15 13:22:21;;;;;;;;;;;537.70;1766.40;;;;;;5092005;28;19916;-60
2022/10/15 13:24:47;;;;;;;;;;;537.90;1766.40;;;;;;5091312;28;20018;-61
2022/10/15 13:27:21;;;;;;;;;;;537.90;1766.40;;;;;;5091671;28;19936;-60
2022/10/15 13:29:54;;;;;;;;;;;537.80;1766.40;;;;;;5091323;28;19955;-61
2022/10/15 13:32:20;;;;;;;;;;;537.80;1740.80;;;;;;5091351;28;19961;-60
2022/10/15 13:34:46;;;;;;;;;;;537.80;1766.40;;;;;;5092634;28;19919;-61
2022/10/15 13:37:16;;;;;;;;;;;537.70;1766.40;;;;;;5094374;28;19912;-61
2022/10/15 13:39:42;;;;;;;;;;;537.70;1792.00;;;;;;5094439;28;19950;-60
2022/10/15 13:42:34;;;;;;;;;;;537.70;1792.00;;;;;;5094232;28;20325;-61
2022/10/15 13:45:03;;;;;;;;;;;537.70;1792.00;;;;;;5093040;28;20045;-60
2022/10/15 13:47:33;;;;;;;;;;;537.70;1766.40;;;;;;5094108;28;19908;-60
2022/10/15 13:50:17;;;;;;;;;;;537.80;1766.40;;;;;;5093911;28;19908;-60